sensor_id;sensor_type;location;lat;lon;timestamp;P1;durP1;ratioP1;P2;durP2;ratioP2
74957;SDS011;63741;42.624;26.276;2023-07-31T00:00:00;4.68;;;1.40;;
74957;SDS011;63741;42.624;26.276;2023-07-31T00:02:30;4.78;;;1.33;;
74957;SDS011;63741;42.624;26.276;2023-07-31T00:04:57;2.50;;;1.40;;
74957;SDS011;63741;42.624;26.276;2023-07-31T00:07:24;2.20;;;1.40;;
74957;SDS011;63741;42.624;26.276;2023-07-31T00:09:51;2.97;;;1.50;;
74957;SDS011;63741;42.624;26.276;2023-07-31T00:12:20;3.83;;;1.70;;
74957;SDS011;63741;42.624;26.276;2023-07-31T00:14:47;4.55;;;1.75;;
74957;SDS011;63741;42.624;26.276;2023-07-31T00:17:14;3.63;;;1.50;;
74957;SDS011;63741;42.624;26.276;2023-07-31T00:19:41;5.10;;;2.00;;
74957;SDS011;63741;42.624;26.276;2023-07-31T00:22:08;3.78;;;1.65;;
74957;SDS011;63741;42.624;26.276;2023-07-31T00:24:35;4.78;;;2.05;;
74957;SDS011;63741;42.624;26.276;2023-07-31T00:27:02;4.90;;;2.05;;
74957;SDS011;63741;42.624;26.276;2023-07-31T00:29:29;4.05;;;1.50;;
74957;SDS011;63741;42.624;26.276;2023-07-31T00:31:56;6.28;;;1.80;;
74957;SDS011;63741;42.624;26.276;2023-07-31T00:34:23;2.60;;;1.50;;
74957;SDS011;63741;42.624;26.276;2023-07-31T00:36:50;4.78;;;1.70;;
74957;SDS011;63741;42.624;26.276;2023-07-31T00:39:17;3.50;;;1.63;;
74957;SDS011;63741;42.624;26.276;2023-07-31T00:41:44;4.32;;;1.70;;
74957;SDS011;63741;42.624;26.276;2023-07-31T00:44:10;3.08;;;1.60;;
74957;SDS011;63741;42.624;26.276;2023-07-31T00:46:37;2.10;;;1.40;;
74957;SDS011;63741;42.624;26.276;2023-07-31T00:49:05;4.10;;;1.73;;
74957;SDS011;63741;42.624;26.276;2023-07-31T00:51:32;4.18;;;1.52;;
74957;SDS011;63741;42.624;26.276;2023-07-31T00:53:59;3.05;;;1.50;;
74957;SDS011;63741;42.624;26.276;2023-07-31T00:56:27;4.65;;;1.40;;
74957;SDS011;63741;42.624;26.276;2023-07-31T00:58:55;5.05;;;1.67;;
74957;SDS011;63741;42.624;26.276;2023-07-31T01:01:22;4.82;;;1.50;;
74957;SDS011;63741;42.624;26.276;2023-07-31T01:03:50;2.00;;;1.25;;
74957;SDS011;63741;42.624;26.276;2023-07-31T01:09:07;4.65;;;1.50;;
74957;SDS011;63741;42.624;26.276;2023-07-31T01:11:43;4.18;;;1.50;;
74957;SDS011;63741;42.624;26.276;2023-07-31T01:14:15;2.20;;;1.40;;
74957;SDS011;63741;42.624;26.276;2023-07-31T01:16:42;2.28;;;1.52;;
74957;SDS011;63741;42.624;26.276;2023-07-31T01:19:10;2.97;;;1.60;;
74957;SDS011;63741;42.624;26.276;2023-07-31T01:27:17;4.10;;;1.38;;
74957;SDS011;63741;42.624;26.276;2023-07-31T01:32:39;5.30;;;1.70;;
74957;SDS011;63741;42.624;26.276;2023-07-31T01:35:08;5.88;;;1.50;;
74957;SDS011;63741;42.624;26.276;2023-07-31T01:37:36;4.32;;;1.75;;
74957;SDS011;63741;42.624;26.276;2023-07-31T01:40:03;2.65;;;1.50;;
74957;SDS011;63741;42.624;26.276;2023-07-31T01:42:31;2.78;;;1.60;;
74957;SDS011;63741;42.624;26.276;2023-07-31T01:44:58;2.70;;;1.50;;
74957;SDS011;63741;42.624;26.276;2023-07-31T01:47:25;3.83;;;1.55;;
74957;SDS011;63741;42.624;26.276;2023-07-31T01:49:52;4.13;;;1.52;;
74957;SDS011;63741;42.624;26.276;2023-07-31T01:52:19;3.00;;;1.65;;
74957;SDS011;63741;42.624;26.276;2023-07-31T01:54:46;2.90;;;1.50;;
74957;SDS011;63741;42.624;26.276;2023-07-31T01:57:13;3.45;;;1.48;;
74957;SDS011;63741;42.624;26.276;2023-07-31T01:59:40;6.13;;;1.48;;
74957;SDS011;63741;42.624;26.276;2023-07-31T02:02:07;6.28;;;1.70;;
74957;SDS011;63741;42.624;26.276;2023-07-31T02:04:34;3.72;;;1.40;;
74957;SDS011;63741;42.624;26.276;2023-07-31T02:07:02;4.90;;;1.52;;
74957;SDS011;63741;42.624;26.276;2023-07-31T02:09:28;3.92;;;1.65;;
74957;SDS011;63741;42.624;26.276;2023-07-31T02:11:56;3.47;;;1.60;;
74957;SDS011;63741;42.624;26.276;2023-07-31T02:14:23;3.33;;;1.60;;
74957;SDS011;63741;42.624;26.276;2023-07-31T02:16:51;5.20;;;1.60;;
74957;SDS011;63741;42.624;26.276;2023-07-31T02:19:18;4.43;;;1.50;;
74957;SDS011;63741;42.624;26.276;2023-07-31T02:21:44;3.85;;;1.83;;
74957;SDS011;63741;42.624;26.276;2023-07-31T02:24:11;2.75;;;1.75;;
74957;SDS011;63741;42.624;26.276;2023-07-31T02:26:38;3.63;;;2.10;;
74957;SDS011;63741;42.624;26.276;2023-07-31T02:29:07;3.78;;;1.70;;
74957;SDS011;63741;42.624;26.276;2023-07-31T02:31:34;8.00;;;2.10;;
74957;SDS011;63741;42.624;26.276;2023-07-31T02:34:01;6.82;;;1.80;;
74957;SDS011;63741;42.624;26.276;2023-07-31T02:36:28;7.57;;;2.30;;
74957;SDS011;63741;42.624;26.276;2023-07-31T02:38:55;4.13;;;1.80;;
74957;SDS011;63741;42.624;26.276;2023-07-31T02:41:22;3.30;;;1.88;;
74957;SDS011;63741;42.624;26.276;2023-07-31T02:43:49;4.32;;;1.73;;
74957;SDS011;63741;42.624;26.276;2023-07-31T02:46:16;9.32;;;1.90;;
74957;SDS011;63741;42.624;26.276;2023-07-31T02:48:43;5.43;;;1.88;;
74957;SDS011;63741;42.624;26.276;2023-07-31T02:51:10;6.35;;;1.73;;
74957;SDS011;63741;42.624;26.276;2023-07-31T02:53:36;10.10;;;1.88;;
74957;SDS011;63741;42.624;26.276;2023-07-31T02:56:03;16.17;;;2.20;;
74957;SDS011;63741;42.624;26.276;2023-07-31T02:58:30;10.93;;;1.90;;
74957;SDS011;63741;42.624;26.276;2023-07-31T03:00:58;29.35;;;3.17;;
74957;SDS011;63741;42.624;26.276;2023-07-31T03:03:25;14.25;;;2.10;;
74957;SDS011;63741;42.624;26.276;2023-07-31T03:05:52;5.43;;;1.60;;
74957;SDS011;63741;42.624;26.276;2023-07-31T03:08:20;12.48;;;1.80;;
74957;SDS011;63741;42.624;26.276;2023-07-31T03:10:48;10.00;;;1.65;;
74957;SDS011;63741;42.624;26.276;2023-07-31T03:13:15;19.50;;;2.30;;
74957;SDS011;63741;42.624;26.276;2023-07-31T03:15:42;10.90;;;1.90;;
74957;SDS011;63741;42.624;26.276;2023-07-31T03:18:10;27.00;;;2.63;;
74957;SDS011;63741;42.624;26.276;2023-07-31T03:20:37;44.10;;;3.83;;
74957;SDS011;63741;42.624;26.276;2023-07-31T03:23:04;37.25;;;3.83;;
74957;SDS011;63741;42.624;26.276;2023-07-31T03:25:31;24.70;;;2.35;;
74957;SDS011;63741;42.624;26.276;2023-07-31T03:27:57;9.52;;;1.80;;
74957;SDS011;63741;42.624;26.276;2023-07-31T03:30:25;3.00;;;1.60;;
74957;SDS011;63741;42.624;26.276;2023-07-31T03:32:51;12.55;;;2.00;;
74957;SDS011;63741;42.624;26.276;2023-07-31T03:35:19;6.95;;;1.70;;
74957;SDS011;63741;42.624;26.276;2023-07-31T03:37:45;10.43;;;1.40;;
74957;SDS011;63741;42.624;26.276;2023-07-31T03:40:13;7.93;;;1.92;;
74957;SDS011;63741;42.624;26.276;2023-07-31T03:42:41;13.75;;;1.80;;
74957;SDS011;63741;42.624;26.276;2023-07-31T03:45:09;6.50;;;1.40;;
74957;SDS011;63741;42.624;26.276;2023-07-31T03:47:36;8.25;;;1.40;;
74957;SDS011;63741;42.624;26.276;2023-07-31T03:50:03;3.92;;;1.45;;
74957;SDS011;63741;42.624;26.276;2023-07-31T03:52:30;3.92;;;1.30;;
74957;SDS011;63741;42.624;26.276;2023-07-31T03:54:57;4.32;;;1.35;;
74957;SDS011;63741;42.624;26.276;2023-07-31T03:57:25;4.50;;;1.52;;
74957;SDS011;63741;42.624;26.276;2023-07-31T03:59:52;11.25;;;1.33;;
74957;SDS011;63741;42.624;26.276;2023-07-31T04:02:19;5.38;;;1.40;;
74957;SDS011;63741;42.624;26.276;2023-07-31T04:04:45;3.92;;;1.20;;
74957;SDS011;63741;42.624;26.276;2023-07-31T04:07:12;6.63;;;1.30;;
74957;SDS011;63741;42.624;26.276;2023-07-31T04:09:39;3.47;;;1.30;;
74957;SDS011;63741;42.624;26.276;2023-07-31T04:12:06;4.60;;;1.20;;
74957;SDS011;63741;42.624;26.276;2023-07-31T04:14:33;5.00;;;1.45;;
74957;SDS011;63741;42.624;26.276;2023-07-31T04:17:00;10.70;;;1.52;;
74957;SDS011;63741;42.624;26.276;2023-07-31T04:19:27;7.50;;;1.75;;
74957;SDS011;63741;42.624;26.276;2023-07-31T05:38:20;84.20;;;5.05;;
74957;SDS011;63741;42.624;26.276;2023-07-31T05:40:47;22.60;;;2.22;;
74957;SDS011;63741;42.624;26.276;2023-07-31T05:43:14;6.47;;;1.60;;
74957;SDS011;63741;42.624;26.276;2023-07-31T05:45:42;6.22;;;1.75;;
74957;SDS011;63741;42.624;26.276;2023-07-31T05:48:09;8.65;;;1.70;;
74957;SDS011;63741;42.624;26.276;2023-07-31T05:50:36;3.50;;;1.50;;
74957;SDS011;63741;42.624;26.276;2023-07-31T05:53:06;6.85;;;1.42;;
74957;SDS011;63741;42.624;26.276;2023-07-31T05:55:34;3.65;;;1.67;;
74957;SDS011;63741;42.624;26.276;2023-07-31T05:58:01;7.75;;;1.70;;
74957;SDS011;63741;42.624;26.276;2023-07-31T06:00:28;19.33;;;2.33;;
74957;SDS011;63741;42.624;26.276;2023-07-31T06:02:55;5.63;;;1.73;;
74957;SDS011;63741;42.624;26.276;2023-07-31T06:05:22;8.57;;;1.40;;
74957;SDS011;63741;42.624;26.276;2023-07-31T06:07:49;3.35;;;1.40;;
74957;SDS011;63741;42.624;26.276;2023-07-31T06:10:16;4.32;;;1.40;;
74957;SDS011;63741;42.624;26.276;2023-07-31T06:12:43;6.03;;;1.90;;
74957;SDS011;63741;42.624;26.276;2023-07-31T06:15:10;4.10;;;1.63;;
74957;SDS011;63741;42.624;26.276;2023-07-31T06:17:37;4.60;;;1.73;;
74957;SDS011;63741;42.624;26.276;2023-07-31T06:20:05;4.82;;;1.60;;
74957;SDS011;63741;42.624;26.276;2023-07-31T06:22:33;11.50;;;1.80;;
74957;SDS011;63741;42.624;26.276;2023-07-31T06:25:00;6.25;;;2.00;;
74957;SDS011;63741;42.624;26.276;2023-07-31T06:27:27;6.57;;;1.85;;
74957;SDS011;63741;42.624;26.276;2023-07-31T06:29:54;5.72;;;2.03;;
74957;SDS011;63741;42.624;26.276;2023-07-31T06:32:21;27.73;;;3.13;;
74957;SDS011;63741;42.624;26.276;2023-07-31T06:34:48;4.68;;;1.52;;
74957;SDS011;63741;42.624;26.276;2023-07-31T06:37:15;19.98;;;2.80;;
74957;SDS011;63741;42.624;26.276;2023-07-31T06:39:41;25.98;;;3.10;;
74957;SDS011;63741;42.624;26.276;2023-07-31T06:42:08;29.13;;;2.83;;
74957;SDS011;63741;42.624;26.276;2023-07-31T06:44:35;12.82;;;2.58;;
74957;SDS011;63741;42.624;26.276;2023-07-31T06:47:02;11.50;;;2.38;;
74957;SDS011;63741;42.624;26.276;2023-07-31T06:49:29;8.27;;;2.17;;
74957;SDS011;63741;42.624;26.276;2023-07-31T06:51:56;11.38;;;2.00;;
74957;SDS011;63741;42.624;26.276;2023-07-31T06:54:23;7.25;;;2.38;;
74957;SDS011;63741;42.624;26.276;2023-07-31T06:56:50;13.20;;;2.10;;
74957;SDS011;63741;42.624;26.276;2023-07-31T06:59:17;11.35;;;1.92;;
74957;SDS011;63741;42.624;26.276;2023-07-31T07:01:44;3.88;;;1.85;;
74957;SDS011;63741;42.624;26.276;2023-07-31T07:04:11;4.90;;;1.63;;
74957;SDS011;63741;42.624;26.276;2023-07-31T07:06:38;16.73;;;2.13;;
74957;SDS011;63741;42.624;26.276;2023-07-31T07:09:05;35.38;;;3.30;;
74957;SDS011;63741;42.624;26.276;2023-07-31T07:11:32;29.45;;;3.00;;
74957;SDS011;63741;42.624;26.276;2023-07-31T07:13:59;29.75;;;2.92;;
74957;SDS011;63741;42.624;26.276;2023-07-31T07:16:28;13.82;;;2.88;;
74957;SDS011;63741;42.624;26.276;2023-07-31T07:18:55;34.55;;;17.85;;
74957;SDS011;63741;42.624;26.276;2023-07-31T07:21:30;26.80;;;16.98;;
74957;SDS011;63741;42.624;26.276;2023-07-31T07:23:57;13.68;;;3.60;;
74957;SDS011;63741;42.624;26.276;2023-07-31T07:26:24;22.30;;;4.38;;
74957;SDS011;63741;42.624;26.276;2023-07-31T07:28:51;13.93;;;3.65;;
74957;SDS011;63741;42.624;26.276;2023-07-31T07:31:17;9.25;;;3.50;;
74957;SDS011;63741;42.624;26.276;2023-07-31T07:33:44;10.98;;;2.80;;
74957;SDS011;63741;42.624;26.276;2023-07-31T07:36:11;13.40;;;3.00;;
74957;SDS011;63741;42.624;26.276;2023-07-31T07:38:39;23.58;;;3.42;;
74957;SDS011;63741;42.624;26.276;2023-07-31T07:41:07;32.47;;;4.30;;
74957;SDS011;63741;42.624;26.276;2023-07-31T07:43:34;9.70;;;2.90;;
74957;SDS011;63741;42.624;26.276;2023-07-31T07:46:01;13.18;;;2.78;;
74957;SDS011;63741;42.624;26.276;2023-07-31T07:48:28;7.20;;;2.63;;
74957;SDS011;63741;42.624;26.276;2023-07-31T07:50:55;6.68;;;2.70;;
74957;SDS011;63741;42.624;26.276;2023-07-31T07:53:22;6.05;;;2.50;;
74957;SDS011;63741;42.624;26.276;2023-07-31T07:55:49;5.85;;;2.40;;
74957;SDS011;63741;42.624;26.276;2023-07-31T07:58:16;5.80;;;2.45;;
74957;SDS011;63741;42.624;26.276;2023-07-31T08:00:48;10.05;;;2.88;;
74957;SDS011;63741;42.624;26.276;2023-07-31T08:03:17;7.80;;;2.90;;
74957;SDS011;63741;42.624;26.276;2023-07-31T08:05:44;12.90;;;5.20;;
74957;SDS011;63741;42.624;26.276;2023-07-31T08:08:14;9.00;;;4.40;;
74957;SDS011;63741;42.624;26.276;2023-07-31T08:10:44;13.55;;;3.97;;
74957;SDS011;63741;42.624;26.276;2023-07-31T08:13:11;11.38;;;3.75;;
74957;SDS011;63741;42.624;26.276;2023-07-31T08:15:40;27.13;;;10.05;;
74957;SDS011;63741;42.624;26.276;2023-07-31T08:18:08;13.38;;;4.93;;
74957;SDS011;63741;42.624;26.276;2023-07-31T08:20:36;13.88;;;3.50;;
74957;SDS011;63741;42.624;26.276;2023-07-31T08:23:03;11.65;;;3.45;;
74957;SDS011;63741;42.624;26.276;2023-07-31T08:25:30;15.55;;;6.80;;
74957;SDS011;63741;42.624;26.276;2023-07-31T08:27:57;89.15;;;57.92;;
74957;SDS011;63741;42.624;26.276;2023-07-31T08:30:24;152.45;;;101.10;;
74957;SDS011;63741;42.624;26.276;2023-07-31T08:32:51;93.90;;;62.92;;
74957;SDS011;63741;42.624;26.276;2023-07-31T08:35:17;56.65;;;36.33;;
74957;SDS011;63741;42.624;26.276;2023-07-31T08:37:45;44.88;;;28.75;;
74957;SDS011;63741;42.624;26.276;2023-07-31T08:40:12;11.52;;;5.65;;
74957;SDS011;63741;42.624;26.276;2023-07-31T08:42:43;31.17;;;19.48;;
74957;SDS011;63741;42.624;26.276;2023-07-31T08:45:15;36.95;;;22.80;;
74957;SDS011;63741;42.624;26.276;2023-07-31T08:47:44;40.78;;;19.35;;
74957;SDS011;63741;42.624;26.276;2023-07-31T08:50:14;34.72;;;17.63;;
74957;SDS011;63741;42.624;26.276;2023-07-31T08:52:43;29.67;;;12.57;;
74957;SDS011;63741;42.624;26.276;2023-07-31T08:55:10;30.25;;;11.60;;
74957;SDS011;63741;42.624;26.276;2023-07-31T08:57:38;27.33;;;7.68;;
74957;SDS011;63741;42.624;26.276;2023-07-31T09:00:06;6.28;;;3.22;;
74957;SDS011;63741;42.624;26.276;2023-07-31T09:02:37;7.65;;;3.55;;
74957;SDS011;63741;42.624;26.276;2023-07-31T09:05:12;7.50;;;4.28;;
74957;SDS011;63741;42.624;26.276;2023-07-31T09:07:39;8.55;;;4.45;;
74957;SDS011;63741;42.624;26.276;2023-07-31T09:10:08;14.55;;;4.93;;
74957;SDS011;63741;42.624;26.276;2023-07-31T09:12:35;11.32;;;4.90;;
74957;SDS011;63741;42.624;26.276;2023-07-31T09:15:03;8.40;;;4.00;;
74957;SDS011;63741;42.624;26.276;2023-07-31T09:17:32;6.25;;;3.92;;
74957;SDS011;63741;42.624;26.276;2023-07-31T09:20:16;6.32;;;3.72;;
74957;SDS011;63741;42.624;26.276;2023-07-31T09:22:45;5.43;;;4.00;;
74957;SDS011;63741;42.624;26.276;2023-07-31T09:25:19;5.75;;;4.10;;
74957;SDS011;63741;42.624;26.276;2023-07-31T09:27:54;5.45;;;3.88;;
74957;SDS011;63741;42.624;26.276;2023-07-31T09:30:24;7.18;;;4.93;;
74957;SDS011;63741;42.624;26.276;2023-07-31T09:32:59;6.47;;;4.32;;
74957;SDS011;63741;42.624;26.276;2023-07-31T09:35:33;8.25;;;5.00;;
74957;SDS011;63741;42.624;26.276;2023-07-31T09:38:06;6.90;;;4.72;;
74957;SDS011;63741;42.624;26.276;2023-07-31T09:43:03;6.18;;;4.72;;
74957;SDS011;63741;42.624;26.276;2023-07-31T09:45:40;6.35;;;5.00;;
74957;SDS011;63741;42.624;26.276;2023-07-31T09:48:09;8.50;;;5.22;;
74957;SDS011;63741;42.624;26.276;2023-07-31T09:50:39;9.43;;;5.78;;
74957;SDS011;63741;42.624;26.276;2023-07-31T09:53:07;8.77;;;5.70;;
74957;SDS011;63741;42.624;26.276;2023-07-31T09:55:36;11.38;;;6.40;;
74957;SDS011;63741;42.624;26.276;2023-07-31T09:58:08;8.05;;;5.65;;
74957;SDS011;63741;42.624;26.276;2023-07-31T10:00:36;7.10;;;5.40;;
74957;SDS011;63741;42.624;26.276;2023-07-31T10:03:04;6.82;;;5.32;;
74957;SDS011;63741;42.624;26.276;2023-07-31T10:05:38;12.13;;;6.15;;
74957;SDS011;63741;42.624;26.276;2023-07-31T10:08:07;7.85;;;5.45;;
74957;SDS011;63741;42.624;26.276;2023-07-31T10:10:37;7.63;;;6.05;;
74957;SDS011;63741;42.624;26.276;2023-07-31T10:13:08;8.75;;;5.88;;
74957;SDS011;63741;42.624;26.276;2023-07-31T10:15:35;10.65;;;6.13;;
74957;SDS011;63741;42.624;26.276;2023-07-31T10:18:03;8.68;;;6.03;;
74957;SDS011;63741;42.624;26.276;2023-07-31T10:20:33;8.90;;;6.40;;
74957;SDS011;63741;42.624;26.276;2023-07-31T10:23:02;8.73;;;7.03;;
74957;SDS011;63741;42.624;26.276;2023-07-31T10:25:29;6.65;;;5.78;;
74957;SDS011;63741;42.624;26.276;2023-07-31T10:27:58;7.18;;;6.22;;
74957;SDS011;63741;42.624;26.276;2023-07-31T10:30:26;7.70;;;6.30;;
74957;SDS011;63741;42.624;26.276;2023-07-31T10:32:56;7.55;;;6.60;;
74957;SDS011;63741;42.624;26.276;2023-07-31T10:35:24;7.85;;;6.35;;
74957;SDS011;63741;42.624;26.276;2023-07-31T10:37:51;7.57;;;6.43;;
74957;SDS011;63741;42.624;26.276;2023-07-31T10:40:19;9.02;;;6.00;;
74957;SDS011;63741;42.624;26.276;2023-07-31T10:45:37;7.82;;;7.03;;
74957;SDS011;63741;42.624;26.276;2023-07-31T10:48:06;7.18;;;6.32;;
74957;SDS011;63741;42.624;26.276;2023-07-31T10:50:40;7.50;;;5.93;;
74957;SDS011;63741;42.624;26.276;2023-07-31T10:55:59;6.38;;;5.53;;
74957;SDS011;63741;42.624;26.276;2023-07-31T10:58:27;6.25;;;5.43;;
74957;SDS011;63741;42.624;26.276;2023-07-31T11:00:55;7.32;;;5.45;;
74957;SDS011;63741;42.624;26.276;2023-07-31T11:03:27;7.85;;;5.20;;
74957;SDS011;63741;42.624;26.276;2023-07-31T11:06:09;7.07;;;5.47;;
74957;SDS011;63741;42.624;26.276;2023-07-31T11:08:41;5.97;;;4.90;;
74957;SDS011;63741;42.624;26.276;2023-07-31T11:11:10;5.97;;;5.35;;
74957;SDS011;63741;42.624;26.276;2023-07-31T11:13:39;5.45;;;4.63;;
74957;SDS011;63741;42.624;26.276;2023-07-31T11:16:09;5.43;;;4.70;;
74957;SDS011;63741;42.624;26.276;2023-07-31T11:18:40;7.82;;;4.68;;
74957;SDS011;63741;42.624;26.276;2023-07-31T11:23:38;6.28;;;4.43;;
74957;SDS011;63741;42.624;26.276;2023-07-31T11:26:06;7.03;;;5.03;;
74957;SDS011;63741;42.624;26.276;2023-07-31T11:28:34;5.60;;;4.47;;
74957;SDS011;63741;42.624;26.276;2023-07-31T11:31:02;5.47;;;4.60;;
74957;SDS011;63741;42.624;26.276;2023-07-31T11:33:29;10.10;;;4.85;;
74957;SDS011;63741;42.624;26.276;2023-07-31T11:35:57;5.53;;;4.35;;
74957;SDS011;63741;42.624;26.276;2023-07-31T11:38:24;5.30;;;4.25;;
74957;SDS011;63741;42.624;26.276;2023-07-31T11:40:56;5.55;;;4.22;;
74957;SDS011;63741;42.624;26.276;2023-07-31T11:43:26;4.72;;;4.18;;
74957;SDS011;63741;42.624;26.276;2023-07-31T11:45:58;4.93;;;4.43;;
74957;SDS011;63741;42.624;26.276;2023-07-31T11:48:33;5.35;;;4.38;;
74957;SDS011;63741;42.624;26.276;2023-07-31T11:51:03;5.93;;;4.50;;
74957;SDS011;63741;42.624;26.276;2023-07-31T11:56:04;5.70;;;4.30;;
74957;SDS011;63741;42.624;26.276;2023-07-31T11:58:34;5.95;;;4.20;;
74957;SDS011;63741;42.624;26.276;2023-07-31T12:01:02;5.05;;;4.13;;
74957;SDS011;63741;42.624;26.276;2023-07-31T12:03:30;5.50;;;4.60;;
74957;SDS011;63741;42.624;26.276;2023-07-31T12:05:59;8.10;;;4.10;;
74957;SDS011;63741;42.624;26.276;2023-07-31T12:08:26;8.00;;;4.05;;
74957;SDS011;63741;42.624;26.276;2023-07-31T12:10:53;5.75;;;4.00;;
74957;SDS011;63741;42.624;26.276;2023-07-31T12:13:22;4.68;;;4.00;;
74957;SDS011;63741;42.624;26.276;2023-07-31T12:15:54;4.93;;;3.83;;
74957;SDS011;63741;42.624;26.276;2023-07-31T12:18:26;8.18;;;4.38;;
74957;SDS011;63741;42.624;26.276;2023-07-31T12:20:54;9.40;;;4.40;;
74957;SDS011;63741;42.624;26.276;2023-07-31T12:23:23;5.95;;;4.28;;
74957;SDS011;63741;42.624;26.276;2023-07-31T12:26:15;8.50;;;4.40;;
74957;SDS011;63741;42.624;26.276;2023-07-31T12:28:43;8.05;;;3.70;;
74957;SDS011;63741;42.624;26.276;2023-07-31T12:31:15;7.03;;;3.88;;
74957;SDS011;63741;42.624;26.276;2023-07-31T12:33:47;5.88;;;4.90;;
74957;SDS011;63741;42.624;26.276;2023-07-31T12:36:25;4.85;;;4.20;;
74957;SDS011;63741;42.624;26.276;2023-07-31T12:38:52;6.43;;;5.13;;
74957;SDS011;63741;42.624;26.276;2023-07-31T12:41:19;7.00;;;4.45;;
74957;SDS011;63741;42.624;26.276;2023-07-31T12:43:46;5.57;;;4.72;;
74957;SDS011;63741;42.624;26.276;2023-07-31T12:46:13;7.10;;;4.80;;
74957;SDS011;63741;42.624;26.276;2023-07-31T12:48:41;5.45;;;4.75;;
74957;SDS011;63741;42.624;26.276;2023-07-31T12:51:08;4.75;;;4.25;;
74957;SDS011;63741;42.624;26.276;2023-07-31T12:53:35;6.13;;;4.65;;
74957;SDS011;63741;42.624;26.276;2023-07-31T12:56:02;5.43;;;4.63;;
74957;SDS011;63741;42.624;26.276;2023-07-31T12:58:29;7.28;;;5.13;;
74957;SDS011;63741;42.624;26.276;2023-07-31T13:00:56;5.70;;;5.10;;
74957;SDS011;63741;42.624;26.276;2023-07-31T13:03:23;5.85;;;5.18;;
74957;SDS011;63741;42.624;26.276;2023-07-31T13:05:50;5.72;;;5.13;;
74957;SDS011;63741;42.624;26.276;2023-07-31T13:08:19;5.05;;;4.55;;
74957;SDS011;63741;42.624;26.276;2023-07-31T13:10:47;5.75;;;5.00;;
74957;SDS011;63741;42.624;26.276;2023-07-31T13:13:14;6.07;;;5.15;;
74957;SDS011;63741;42.624;26.276;2023-07-31T13:15:41;6.07;;;4.95;;
74957;SDS011;63741;42.624;26.276;2023-07-31T13:18:08;6.38;;;5.10;;
74957;SDS011;63741;42.624;26.276;2023-07-31T13:20:35;5.40;;;4.90;;
74957;SDS011;63741;42.624;26.276;2023-07-31T13:23:02;5.60;;;4.78;;
74957;SDS011;63741;42.624;26.276;2023-07-31T13:25:29;6.07;;;4.72;;
74957;SDS011;63741;42.624;26.276;2023-07-31T13:27:56;7.03;;;5.13;;
74957;SDS011;63741;42.624;26.276;2023-07-31T13:30:26;5.53;;;4.78;;
74957;SDS011;63741;42.624;26.276;2023-07-31T13:32:53;5.30;;;4.68;;
74957;SDS011;63741;42.624;26.276;2023-07-31T13:35:20;5.57;;;4.85;;
74957;SDS011;63741;42.624;26.276;2023-07-31T13:37:47;6.05;;;5.13;;
74957;SDS011;63741;42.624;26.276;2023-07-31T13:40:14;5.80;;;5.20;;
74957;SDS011;63741;42.624;26.276;2023-07-31T13:42:41;8.30;;;4.90;;
74957;SDS011;63741;42.624;26.276;2023-07-31T13:45:08;5.13;;;4.60;;
74957;SDS011;63741;42.624;26.276;2023-07-31T13:47:35;5.22;;;4.53;;
74957;SDS011;63741;42.624;26.276;2023-07-31T13:50:04;5.22;;;4.50;;
74957;SDS011;63741;42.624;26.276;2023-07-31T13:52:31;5.63;;;4.82;;
74957;SDS011;63741;42.624;26.276;2023-07-31T13:55:00;7.47;;;4.90;;
74957;SDS011;63741;42.624;26.276;2023-07-31T13:57:26;6.90;;;5.38;;
74957;SDS011;63741;42.624;26.276;2023-07-31T13:59:53;5.85;;;4.93;;
74957;SDS011;63741;42.624;26.276;2023-07-31T14:02:20;6.53;;;5.25;;
74957;SDS011;63741;42.624;26.276;2023-07-31T14:04:47;5.95;;;4.93;;
74957;SDS011;63741;42.624;26.276;2023-07-31T14:07:14;6.40;;;5.20;;
74957;SDS011;63741;42.624;26.276;2023-07-31T14:09:41;5.90;;;4.88;;
74957;SDS011;63741;42.624;26.276;2023-07-31T14:12:08;6.32;;;5.35;;
74957;SDS011;63741;42.624;26.276;2023-07-31T14:14:35;6.50;;;5.13;;
74957;SDS011;63741;42.624;26.276;2023-07-31T14:17:02;6.85;;;5.22;;
74957;SDS011;63741;42.624;26.276;2023-07-31T14:19:29;6.15;;;4.90;;
74957;SDS011;63741;42.624;26.276;2023-07-31T14:21:58;5.53;;;4.93;;
74957;SDS011;63741;42.624;26.276;2023-07-31T14:24:37;6.55;;;4.95;;
74957;SDS011;63741;42.624;26.276;2023-07-31T14:27:05;6.43;;;5.00;;
74957;SDS011;63741;42.624;26.276;2023-07-31T14:29:32;5.78;;;5.10;;
74957;SDS011;63741;42.624;26.276;2023-07-31T14:31:59;5.60;;;4.75;;
74957;SDS011;63741;42.624;26.276;2023-07-31T14:34:27;5.30;;;4.80;;
74957;SDS011;63741;42.624;26.276;2023-07-31T14:36:54;6.47;;;5.50;;
74957;SDS011;63741;42.624;26.276;2023-07-31T14:39:21;7.47;;;5.07;;
74957;SDS011;63741;42.624;26.276;2023-07-31T14:41:48;6.05;;;4.95;;
74957;SDS011;63741;42.624;26.276;2023-07-31T14:44:15;7.72;;;4.90;;
74957;SDS011;63741;42.624;26.276;2023-07-31T14:46:42;6.30;;;5.50;;
74957;SDS011;63741;42.624;26.276;2023-07-31T14:49:09;6.32;;;5.10;;
74957;SDS011;63741;42.624;26.276;2023-07-31T14:51:36;5.28;;;4.78;;
74957;SDS011;63741;42.624;26.276;2023-07-31T14:54:03;6.03;;;5.43;;
74957;SDS011;63741;42.624;26.276;2023-07-31T14:56:30;5.50;;;4.95;;
74957;SDS011;63741;42.624;26.276;2023-07-31T14:58:57;7.90;;;4.75;;
74957;SDS011;63741;42.624;26.276;2023-07-31T15:01:24;5.57;;;4.50;;
74957;SDS011;63741;42.624;26.276;2023-07-31T15:03:51;14.68;;;5.28;;
74957;SDS011;63741;42.624;26.276;2023-07-31T15:06:18;13.15;;;4.93;;
74957;SDS011;63741;42.624;26.276;2023-07-31T15:08:45;9.27;;;4.80;;
74957;SDS011;63741;42.624;26.276;2023-07-31T15:11:12;7.55;;;4.82;;
74957;SDS011;63741;42.624;26.276;2023-07-31T15:13:41;4.90;;;4.40;;
74957;SDS011;63741;42.624;26.276;2023-07-31T15:16:08;20.48;;;5.65;;
74957;SDS011;63741;42.624;26.276;2023-07-31T15:18:35;6.30;;;4.20;;
74957;SDS011;63741;42.624;26.276;2023-07-31T15:21:01;10.98;;;4.30;;
74957;SDS011;63741;42.624;26.276;2023-07-31T15:23:28;5.50;;;4.20;;
74957;SDS011;63741;42.624;26.276;2023-07-31T15:25:55;6.22;;;4.03;;
74957;SDS011;63741;42.624;26.276;2023-07-31T15:28:22;5.82;;;3.72;;
74957;SDS011;63741;42.624;26.276;2023-07-31T15:30:49;7.03;;;3.92;;
74957;SDS011;63741;42.624;26.276;2023-07-31T15:33:16;4.30;;;3.60;;
74957;SDS011;63741;42.624;26.276;2023-07-31T15:35:43;5.95;;;3.65;;
74957;SDS011;63741;42.624;26.276;2023-07-31T15:38:10;10.75;;;4.50;;
74957;SDS011;63741;42.624;26.276;2023-07-31T15:40:38;12.77;;;4.28;;
74957;SDS011;63741;42.624;26.276;2023-07-31T15:43:05;9.65;;;3.97;;
74957;SDS011;63741;42.624;26.276;2023-07-31T15:45:32;4.00;;;3.60;;
74957;SDS011;63741;42.624;26.276;2023-07-31T15:47:59;4.25;;;3.72;;
74957;SDS011;63741;42.624;26.276;2023-07-31T15:50:26;5.35;;;4.00;;
74957;SDS011;63741;42.624;26.276;2023-07-31T15:52:53;9.13;;;4.03;;
74957;SDS011;63741;42.624;26.276;2023-07-31T15:55:20;6.22;;;3.85;;
74957;SDS011;63741;42.624;26.276;2023-07-31T15:57:48;9.48;;;3.90;;
74957;SDS011;63741;42.624;26.276;2023-07-31T16:00:15;5.38;;;3.70;;
74957;SDS011;63741;42.624;26.276;2023-07-31T16:02:42;8.27;;;4.05;;
74957;SDS011;63741;42.624;26.276;2023-07-31T16:05:10;9.68;;;4.25;;
74957;SDS011;63741;42.624;26.276;2023-07-31T16:07:38;7.40;;;4.13;;
74957;SDS011;63741;42.624;26.276;2023-07-31T16:10:05;23.80;;;5.35;;
74957;SDS011;63741;42.624;26.276;2023-07-31T16:12:32;16.38;;;4.70;;
74957;SDS011;63741;42.624;26.276;2023-07-31T16:14:59;12.65;;;4.18;;